sensor_id;sensor_type;location;lat;lon;timestamp;P1;durP1;ratioP1;P2;durP2;ratioP2
9214;SDS011;4642;51.364;6.788;2023-03-01T00:01:09;8.83;;;4.70;;
9214;SDS011;4642;51.364;6.788;2023-03-01T00:03:37;7.43;;;4.73;;
9214;SDS011;4642;51.364;6.788;2023-03-01T00:06:03;8.57;;;4.63;;
9214;SDS011;4642;51.364;6.788;2023-03-01T00:08:29;7.30;;;4.23;;
9214;SDS011;4642;51.364;6.788;2023-03-01T00:11:10;6.40;;;4.40;;
9214;SDS011;4642;51.364;6.788;2023-03-01T00:13:39;5.30;;;3.93;;
9214;SDS011;4642;51.364;6.788;2023-03-01T00:16:07;7.17;;;4.97;;
9214;SDS011;4642;51.364;6.788;2023-03-01T00:18:34;7.63;;;4.10;;
9214;SDS011;4642;51.364;6.788;2023-03-01T00:21:00;8.40;;;4.40;;
9214;SDS011;4642;51.364;6.788;2023-03-01T00:23:26;8.63;;;5.03;;
9214;SDS011;4642;51.364;6.788;2023-03-01T00:25:52;6.63;;;4.50;;
9214;SDS011;4642;51.364;6.788;2023-03-01T00:28:18;6.50;;;4.57;;
9214;SDS011;4642;51.364;6.788;2023-03-01T00:30:44;6.57;;;5.00;;
9214;SDS011;4642;51.364;6.788;2023-03-01T00:33:10;7.13;;;4.80;;
9214;SDS011;4642;51.364;6.788;2023-03-01T00:35:36;9.67;;;4.97;;
9214;SDS011;4642;51.364;6.788;2023-03-01T00:38:02;8.97;;;5.03;;
9214;SDS011;4642;51.364;6.788;2023-03-01T00:40:29;8.43;;;5.03;;
9214;SDS011;4642;51.364;6.788;2023-03-01T00:42:57;8.43;;;4.97;;
9214;SDS011;4642;51.364;6.788;2023-03-01T00:45:23;7.03;;;5.47;;
9214;SDS011;4642;51.364;6.788;2023-03-01T00:47:49;10.10;;;4.93;;
9214;SDS011;4642;51.364;6.788;2023-03-01T00:50:15;6.13;;;4.23;;
9214;SDS011;4642;51.364;6.788;2023-03-01T00:52:41;6.37;;;4.77;;
9214;SDS011;4642;51.364;6.788;2023-03-01T00:55:06;6.07;;;4.77;;
9214;SDS011;4642;51.364;6.788;2023-03-01T00:57:32;6.40;;;4.90;;
9214;SDS011;4642;51.364;6.788;2023-03-01T00:59:58;8.90;;;5.10;;
9214;SDS011;4642;51.364;6.788;2023-03-01T01:02:24;6.90;;;4.63;;
9214;SDS011;4642;51.364;6.788;2023-03-01T01:04:50;7.20;;;5.10;;
9214;SDS011;4642;51.364;6.788;2023-03-01T01:07:15;7.00;;;4.60;;
9214;SDS011;4642;51.364;6.788;2023-03-01T01:09:41;7.30;;;4.97;;
9214;SDS011;4642;51.364;6.788;2023-03-01T01:12:07;12.17;;;5.50;;
9214;SDS011;4642;51.364;6.788;2023-03-01T01:14:33;8.90;;;5.43;;
9214;SDS011;4642;51.364;6.788;2023-03-01T01:16:59;8.30;;;4.93;;
9214;SDS011;4642;51.364;6.788;2023-03-01T01:19:25;8.53;;;4.97;;
9214;SDS011;4642;51.364;6.788;2023-03-01T01:21:51;6.70;;;5.00;;
9214;SDS011;4642;51.364;6.788;2023-03-01T01:24:17;9.30;;;5.30;;
9214;SDS011;4642;51.364;6.788;2023-03-01T01:26:43;9.27;;;5.23;;
9214;SDS011;4642;51.364;6.788;2023-03-01T01:29:09;10.43;;;5.23;;
9214;SDS011;4642;51.364;6.788;2023-03-01T01:31:36;8.67;;;5.53;;
9214;SDS011;4642;51.364;6.788;2023-03-01T01:34:03;10.50;;;5.37;;
9214;SDS011;4642;51.364;6.788;2023-03-01T01:36:30;6.80;;;5.50;;
9214;SDS011;4642;51.364;6.788;2023-03-01T01:38:56;6.17;;;4.83;;
9214;SDS011;4642;51.364;6.788;2023-03-01T01:41:23;8.20;;;5.20;;
9214;SDS011;4642;51.364;6.788;2023-03-01T01:46:35;7.17;;;4.80;;
9214;SDS011;4642;51.364;6.788;2023-03-01T01:49:05;8.53;;;5.20;;
9214;SDS011;4642;51.364;6.788;2023-03-01T01:51:40;11.07;;;5.10;;
9214;SDS011;4642;51.364;6.788;2023-03-01T01:54:14;10.23;;;5.87;;
9214;SDS011;4642;51.364;6.788;2023-03-01T01:56:44;11.90;;;5.73;;
9214;SDS011;4642;51.364;6.788;2023-03-01T01:59:15;9.23;;;6.00;;
9214;SDS011;4642;51.364;6.788;2023-03-01T02:01:41;8.03;;;5.57;;
9214;SDS011;4642;51.364;6.788;2023-03-01T02:04:08;7.10;;;5.53;;
9214;SDS011;4642;51.364;6.788;2023-03-01T02:06:36;9.43;;;5.77;;
9214;SDS011;4642;51.364;6.788;2023-03-01T02:09:05;8.17;;;4.97;;
9214;SDS011;4642;51.364;6.788;2023-03-01T02:11:33;8.87;;;6.07;;
9214;SDS011;4642;51.364;6.788;2023-03-01T02:13:59;10.87;;;6.20;;
9214;SDS011;4642;51.364;6.788;2023-03-01T02:16:25;8.13;;;5.10;;
9214;SDS011;4642;51.364;6.788;2023-03-01T02:18:51;8.77;;;5.20;;
9214;SDS011;4642;51.364;6.788;2023-03-01T02:27:19;8.67;;;4.97;;
9214;SDS011;4642;51.364;6.788;2023-03-01T02:29:50;7.07;;;5.20;;
9214;SDS011;4642;51.364;6.788;2023-03-01T02:32:16;6.30;;;5.17;;
9214;SDS011;4642;51.364;6.788;2023-03-01T02:34:50;9.73;;;5.33;;
9214;SDS011;4642;51.364;6.788;2023-03-01T02:37:20;10.47;;;5.40;;
9214;SDS011;4642;51.364;6.788;2023-03-01T02:39:51;10.10;;;6.20;;
9214;SDS011;4642;51.364;6.788;2023-03-01T02:42:23;10.77;;;6.67;;
9214;SDS011;4642;51.364;6.788;2023-03-01T02:44:55;10.07;;;5.90;;
9214;SDS011;4642;51.364;6.788;2023-03-01T02:47:21;8.87;;;6.00;;
9214;SDS011;4642;51.364;6.788;2023-03-01T02:49:46;8.83;;;5.70;;
9214;SDS011;4642;51.364;6.788;2023-03-01T02:54:59;8.17;;;5.60;;
9214;SDS011;4642;51.364;6.788;2023-03-01T02:57:33;8.60;;;6.50;;
9214;SDS011;4642;51.364;6.788;2023-03-01T03:00:06;10.10;;;6.47;;
9214;SDS011;4642;51.364;6.788;2023-03-01T03:02:44;7.40;;;5.50;;
9214;SDS011;4642;51.364;6.788;2023-03-01T03:05:12;9.90;;;5.40;;
9214;SDS011;4642;51.364;6.788;2023-03-01T03:07:41;8.57;;;6.27;;
9214;SDS011;4642;51.364;6.788;2023-03-01T03:10:09;8.93;;;6.20;;
9214;SDS011;4642;51.364;6.788;2023-03-01T03:12:37;10.17;;;6.23;;
9214;SDS011;4642;51.364;6.788;2023-03-01T03:15:04;10.33;;;6.00;;
9214;SDS011;4642;51.364;6.788;2023-03-01T03:17:34;9.13;;;6.13;;
9214;SDS011;4642;51.364;6.788;2023-03-01T03:20:05;8.07;;;5.97;;
9214;SDS011;4642;51.364;6.788;2023-03-01T03:22:35;7.93;;;6.20;;
9214;SDS011;4642;51.364;6.788;2023-03-01T03:25:02;8.33;;;6.60;;
9214;SDS011;4642;51.364;6.788;2023-03-01T03:27:28;12.33;;;6.47;;
9214;SDS011;4642;51.364;6.788;2023-03-01T03:29:53;9.60;;;5.63;;
9214;SDS011;4642;51.364;6.788;2023-03-01T03:32:19;8.40;;;6.70;;
9214;SDS011;4642;51.364;6.788;2023-03-01T03:34:44;9.67;;;5.90;;
9214;SDS011;4642;51.364;6.788;2023-03-01T03:37:10;10.53;;;6.13;;
9214;SDS011;4642;51.364;6.788;2023-03-01T03:39:55;12.03;;;6.47;;
9214;SDS011;4642;51.364;6.788;2023-03-01T03:42:21;9.07;;;6.57;;
9214;SDS011;4642;51.364;6.788;2023-03-01T03:44:49;8.37;;;6.03;;
9214;SDS011;4642;51.364;6.788;2023-03-01T03:47:15;7.80;;;6.10;;
9214;SDS011;4642;51.364;6.788;2023-03-01T03:49:40;7.67;;;5.80;;
9214;SDS011;4642;51.364;6.788;2023-03-01T03:52:06;9.87;;;6.77;;
9214;SDS011;4642;51.364;6.788;2023-03-01T03:54:38;10.57;;;6.67;;
9214;SDS011;4642;51.364;6.788;2023-03-01T03:57:05;9.87;;;6.43;;
9214;SDS011;4642;51.364;6.788;2023-03-01T03:59:30;10.47;;;6.50;;
9214;SDS011;4642;51.364;6.788;2023-03-01T04:01:56;10.30;;;6.80;;
9214;SDS011;4642;51.364;6.788;2023-03-01T04:04:22;10.47;;;5.93;;
9214;SDS011;4642;51.364;6.788;2023-03-01T04:06:47;8.60;;;6.27;;
9214;SDS011;4642;51.364;6.788;2023-03-01T04:09:13;10.57;;;7.37;;
9214;SDS011;4642;51.364;6.788;2023-03-01T04:11:39;12.10;;;6.97;;
9214;SDS011;4642;51.364;6.788;2023-03-01T04:14:04;8.07;;;6.03;;
9214;SDS011;4642;51.364;6.788;2023-03-01T04:16:30;10.27;;;7.17;;
9214;SDS011;4642;51.364;6.788;2023-03-01T04:18:55;9.93;;;6.63;;
9214;SDS011;4642;51.364;6.788;2023-03-01T04:21:21;10.70;;;6.97;;
9214;SDS011;4642;51.364;6.788;2023-03-01T04:23:47;13.57;;;6.57;;
9214;SDS011;4642;51.364;6.788;2023-03-01T04:26:12;8.30;;;5.63;;
9214;SDS011;4642;51.364;6.788;2023-03-01T04:28:39;9.10;;;6.13;;
9214;SDS011;4642;51.364;6.788;2023-03-01T04:31:15;10.67;;;6.40;;
9214;SDS011;4642;51.364;6.788;2023-03-01T04:33:44;7.87;;;5.93;;
9214;SDS011;4642;51.364;6.788;2023-03-01T04:36:16;10.87;;;6.40;;
9214;SDS011;4642;51.364;6.788;2023-03-01T04:38:43;11.53;;;6.70;;
9214;SDS011;4642;51.364;6.788;2023-03-01T04:41:13;9.47;;;6.07;;
9214;SDS011;4642;51.364;6.788;2023-03-01T04:43:40;12.73;;;7.10;;
9214;SDS011;4642;51.364;6.788;2023-03-01T04:46:07;9.17;;;5.97;;
9214;SDS011;4642;51.364;6.788;2023-03-01T04:48:36;8.53;;;6.13;;
9214;SDS011;4642;51.364;6.788;2023-03-01T04:51:02;11.23;;;6.67;;
9214;SDS011;4642;51.364;6.788;2023-03-01T04:53:29;11.03;;;7.50;;
9214;SDS011;4642;51.364;6.788;2023-03-01T04:55:55;14.50;;;7.60;;
9214;SDS011;4642;51.364;6.788;2023-03-01T04:58:22;11.67;;;7.00;;
9214;SDS011;4642;51.364;6.788;2023-03-01T05:00:49;13.40;;;6.53;;
9214;SDS011;4642;51.364;6.788;2023-03-01T05:03:15;10.93;;;6.77;;
9214;SDS011;4642;51.364;6.788;2023-03-01T05:05:43;10.53;;;7.17;;
9214;SDS011;4642;51.364;6.788;2023-03-01T05:08:10;10.90;;;5.97;;
9214;SDS011;4642;51.364;6.788;2023-03-01T05:10:42;10.27;;;6.83;;
9214;SDS011;4642;51.364;6.788;2023-03-01T05:13:14;10.27;;;6.13;;
9214;SDS011;4642;51.364;6.788;2023-03-01T05:15:45;11.23;;;6.73;;
9214;SDS011;4642;51.364;6.788;2023-03-01T05:18:22;10.57;;;7.40;;
9214;SDS011;4642;51.364;6.788;2023-03-01T05:20:50;10.30;;;6.93;;
9214;SDS011;4642;51.364;6.788;2023-03-01T05:23:17;11.23;;;6.83;;
9214;SDS011;4642;51.364;6.788;2023-03-01T05:25:43;10.20;;;6.83;;
9214;SDS011;4642;51.364;6.788;2023-03-01T05:28:10;9.07;;;6.97;;
9214;SDS011;4642;51.364;6.788;2023-03-01T05:30:36;10.83;;;7.27;;
9214;SDS011;4642;51.364;6.788;2023-03-01T05:33:04;9.67;;;6.93;;
9214;SDS011;4642;51.364;6.788;2023-03-01T05:35:29;10.57;;;6.10;;
9214;SDS011;4642;51.364;6.788;2023-03-01T05:37:57;10.00;;;6.57;;
9214;SDS011;4642;51.364;6.788;2023-03-01T05:40:23;9.90;;;6.90;;
9214;SDS011;4642;51.364;6.788;2023-03-01T05:42:53;11.20;;;6.77;;
9214;SDS011;4642;51.364;6.788;2023-03-01T05:45:21;12.50;;;7.30;;
9214;SDS011;4642;51.364;6.788;2023-03-01T05:47:48;11.40;;;6.27;;
9214;SDS011;4642;51.364;6.788;2023-03-01T05:55:27;11.00;;;6.13;;
9214;SDS011;4642;51.364;6.788;2023-03-01T05:57:53;14.90;;;7.77;;
9214;SDS011;4642;51.364;6.788;2023-03-01T06:00:19;13.07;;;7.27;;
9214;SDS011;4642;51.364;6.788;2023-03-01T06:02:49;11.53;;;7.70;;
9214;SDS011;4642;51.364;6.788;2023-03-01T06:05:17;11.60;;;7.30;;
9214;SDS011;4642;51.364;6.788;2023-03-01T06:07:43;12.07;;;7.87;;
9214;SDS011;4642;51.364;6.788;2023-03-01T06:10:09;11.83;;;7.77;;
9214;SDS011;4642;51.364;6.788;2023-03-01T06:12:36;10.87;;;7.53;;
9214;SDS011;4642;51.364;6.788;2023-03-01T06:15:03;11.50;;;7.17;;
9214;SDS011;4642;51.364;6.788;2023-03-01T06:17:30;10.80;;;7.20;;
9214;SDS011;4642;51.364;6.788;2023-03-01T06:19:57;10.77;;;7.30;;
9214;SDS011;4642;51.364;6.788;2023-03-01T06:22:23;10.90;;;6.97;;
9214;SDS011;4642;51.364;6.788;2023-03-01T06:24:48;14.60;;;7.67;;
9214;SDS011;4642;51.364;6.788;2023-03-01T06:27:14;10.90;;;7.57;;
9214;SDS011;4642;51.364;6.788;2023-03-01T06:29:40;10.63;;;7.10;;
9214;SDS011;4642;51.364;6.788;2023-03-01T06:32:06;11.47;;;7.73;;
9214;SDS011;4642;51.364;6.788;2023-03-01T06:34:32;11.70;;;7.33;;
9214;SDS011;4642;51.364;6.788;2023-03-01T06:36:58;10.80;;;6.83;;
9214;SDS011;4642;51.364;6.788;2023-03-01T06:39:24;11.30;;;7.40;;
9214;SDS011;4642;51.364;6.788;2023-03-01T06:41:49;10.03;;;7.23;;
9214;SDS011;4642;51.364;6.788;2023-03-01T06:44:15;10.93;;;7.00;;
9214;SDS011;4642;51.364;6.788;2023-03-01T06:46:40;13.97;;;7.27;;
9214;SDS011;4642;51.364;6.788;2023-03-01T06:49:06;9.40;;;6.60;;
9214;SDS011;4642;51.364;6.788;2023-03-01T06:51:34;11.50;;;7.63;;
9214;SDS011;4642;51.364;6.788;2023-03-01T06:54:01;10.40;;;6.67;;
9214;SDS011;4642;51.364;6.788;2023-03-01T06:56:27;11.80;;;7.67;;
9214;SDS011;4642;51.364;6.788;2023-03-01T06:58:53;10.13;;;7.03;;
9214;SDS011;4642;51.364;6.788;2023-03-01T07:01:18;9.83;;;6.63;;
9214;SDS011;4642;51.364;6.788;2023-03-01T07:03:44;11.17;;;7.33;;
9214;SDS011;4642;51.364;6.788;2023-03-01T07:06:10;11.33;;;7.40;;
9214;SDS011;4642;51.364;6.788;2023-03-01T07:08:35;13.27;;;8.40;;
9214;SDS011;4642;51.364;6.788;2023-03-01T07:11:01;11.37;;;7.90;;
9214;SDS011;4642;51.364;6.788;2023-03-01T07:13:28;12.07;;;8.27;;
9214;SDS011;4642;51.364;6.788;2023-03-01T07:15:53;13.40;;;8.13;;
9214;SDS011;4642;51.364;6.788;2023-03-01T07:18:19;11.80;;;7.67;;
9214;SDS011;4642;51.364;6.788;2023-03-01T07:20:44;11.80;;;7.83;;
9214;SDS011;4642;51.364;6.788;2023-03-01T07:23:10;16.87;;;7.97;;
9214;SDS011;4642;51.364;6.788;2023-03-01T07:25:35;9.60;;;7.17;;
9214;SDS011;4642;51.364;6.788;2023-03-01T07:28:01;13.30;;;8.43;;
9214;SDS011;4642;51.364;6.788;2023-03-01T07:30:27;10.20;;;7.63;;
9214;SDS011;4642;51.364;6.788;2023-03-01T07:32:53;12.03;;;7.80;;
9214;SDS011;4642;51.364;6.788;2023-03-01T07:35:20;12.30;;;8.53;;
9214;SDS011;4642;51.364;6.788;2023-03-01T07:37:45;10.83;;;7.53;;
9214;SDS011;4642;51.364;6.788;2023-03-01T07:40:11;15.90;;;8.43;;
9214;SDS011;4642;51.364;6.788;2023-03-01T07:42:37;14.70;;;9.30;;
9214;SDS011;4642;51.364;6.788;2023-03-01T07:45:03;13.03;;;8.63;;
9214;SDS011;4642;51.364;6.788;2023-03-01T07:47:30;13.07;;;8.30;;
9214;SDS011;4642;51.364;6.788;2023-03-01T07:49:56;10.57;;;7.73;;
9214;SDS011;4642;51.364;6.788;2023-03-01T07:52:22;15.03;;;8.10;;
9214;SDS011;4642;51.364;6.788;2023-03-01T07:54:47;11.60;;;8.33;;
9214;SDS011;4642;51.364;6.788;2023-03-01T07:57:13;12.00;;;8.40;;
9214;SDS011;4642;51.364;6.788;2023-03-01T07:59:38;12.67;;;8.93;;
9214;SDS011;4642;51.364;6.788;2023-03-01T08:02:04;18.57;;;9.47;;
9214;SDS011;4642;51.364;6.788;2023-03-01T08:04:30;12.63;;;9.47;;
9214;SDS011;4642;51.364;6.788;2023-03-01T08:06:56;12.40;;;8.83;;
9214;SDS011;4642;51.364;6.788;2023-03-01T08:09:22;11.70;;;7.93;;
9214;SDS011;4642;51.364;6.788;2023-03-01T08:11:47;15.07;;;9.43;;
9214;SDS011;4642;51.364;6.788;2023-03-01T08:14:13;13.20;;;8.30;;
9214;SDS011;4642;51.364;6.788;2023-03-01T08:16:39;12.67;;;8.40;;
9214;SDS011;4642;51.364;6.788;2023-03-01T08:19:05;15.53;;;8.57;;
9214;SDS011;4642;51.364;6.788;2023-03-01T08:21:32;14.40;;;8.90;;
9214;SDS011;4642;51.364;6.788;2023-03-01T08:23:59;12.73;;;8.17;;
9214;SDS011;4642;51.364;6.788;2023-03-01T08:26:25;15.53;;;8.50;;
9214;SDS011;4642;51.364;6.788;2023-03-01T08:28:51;18.87;;;9.70;;
9214;SDS011;4642;51.364;6.788;2023-03-01T08:31:22;12.50;;;8.50;;
9214;SDS011;4642;51.364;6.788;2023-03-01T08:33:57;14.33;;;9.00;;
9214;SDS011;4642;51.364;6.788;2023-03-01T08:36:25;14.70;;;8.40;;
9214;SDS011;4642;51.364;6.788;2023-03-01T08:38:53;12.40;;;8.77;;
9214;SDS011;4642;51.364;6.788;2023-03-01T08:41:19;12.47;;;8.10;;
9214;SDS011;4642;51.364;6.788;2023-03-01T08:43:44;12.93;;;8.37;;
9214;SDS011;4642;51.364;6.788;2023-03-01T08:46:10;12.10;;;8.27;;
9214;SDS011;4642;51.364;6.788;2023-03-01T08:48:36;13.50;;;7.73;;
9214;SDS011;4642;51.364;6.788;2023-03-01T08:51:14;13.90;;;9.07;;
9214;SDS011;4642;51.364;6.788;2023-03-01T08:53:42;12.27;;;8.00;;
9214;SDS011;4642;51.364;6.788;2023-03-01T08:56:08;10.77;;;7.53;;
9214;SDS011;4642;51.364;6.788;2023-03-01T08:58:34;12.90;;;7.80;;
9214;SDS011;4642;51.364;6.788;2023-03-01T09:01:00;10.27;;;7.37;;
9214;SDS011;4642;51.364;6.788;2023-03-01T09:03:26;9.63;;;7.13;;
9214;SDS011;4642;51.364;6.788;2023-03-01T09:05:52;11.57;;;7.30;;
9214;SDS011;4642;51.364;6.788;2023-03-01T09:08:18;12.47;;;6.63;;
9214;SDS011;4642;51.364;6.788;2023-03-01T09:10:44;9.43;;;6.77;;
9214;SDS011;4642;51.364;6.788;2023-03-01T09:13:10;13.20;;;7.37;;
9214;SDS011;4642;51.364;6.788;2023-03-01T09:15:39;14.20;;;7.37;;
9214;SDS011;4642;51.364;6.788;2023-03-01T09:18:04;9.43;;;6.23;;
9214;SDS011;4642;51.364;6.788;2023-03-01T09:20:31;9.50;;;6.50;;
9214;SDS011;4642;51.364;6.788;2023-03-01T09:22:57;10.23;;;6.63;;
9214;SDS011;4642;51.364;6.788;2023-03-01T09:25:23;12.63;;;7.00;;
9214;SDS011;4642;51.364;6.788;2023-03-01T09:27:52;11.00;;;6.77;;
9214;SDS011;4642;51.364;6.788;2023-03-01T09:30:18;8.80;;;6.90;;
9214;SDS011;4642;51.364;6.788;2023-03-01T09:32:43;13.83;;;6.73;;
9214;SDS011;4642;51.364;6.788;2023-03-01T09:35:09;11.03;;;6.43;;
9214;SDS011;4642;51.364;6.788;2023-03-01T09:37:36;9.83;;;6.60;;
9214;SDS011;4642;51.364;6.788;2023-03-01T09:40:12;11.33;;;6.33;;
9214;SDS011;4642;51.364;6.788;2023-03-01T09:42:46;9.73;;;6.10;;
9214;SDS011;4642;51.364;6.788;2023-03-01T09:45:40;13.70;;;7.00;;
9214;SDS011;4642;51.364;6.788;2023-03-01T09:48:19;11.73;;;6.27;;
9214;SDS011;4642;51.364;6.788;2023-03-01T09:50:48;10.03;;;6.33;;
9214;SDS011;4642;51.364;6.788;2023-03-01T09:53:22;9.17;;;5.90;;
9214;SDS011;4642;51.364;6.788;2023-03-01T09:55:53;11.00;;;5.97;;
9214;SDS011;4642;51.364;6.788;2023-03-01T10:00:56;8.60;;;6.03;;
9214;SDS011;4642;51.364;6.788;2023-03-01T10:06:19;9.13;;;6.03;;
9214;SDS011;4642;51.364;6.788;2023-03-01T10:11:32;10.20;;;6.13;;
9214;SDS011;4642;51.364;6.788;2023-03-01T10:14:05;10.03;;;6.40;;
9214;SDS011;4642;51.364;6.788;2023-03-01T10:19:08;11.10;;;5.77;;
9214;SDS011;4642;51.364;6.788;2023-03-01T10:21:40;8.87;;;5.93;;
9214;SDS011;4642;51.364;6.788;2023-03-01T10:24:11;8.20;;;5.93;;
9214;SDS011;4642;51.364;6.788;2023-03-01T10:26:47;9.03;;;5.27;;
9214;SDS011;4642;51.364;6.788;2023-03-01T10:29:13;8.83;;;5.70;;
9214;SDS011;4642;51.364;6.788;2023-03-01T10:36:45;8.60;;;6.30;;
9214;SDS011;4642;51.364;6.788;2023-03-01T10:39:17;8.97;;;5.47;;
9214;SDS011;4642;51.364;6.788;2023-03-01T10:41:51;9.40;;;5.87;;
9214;SDS011;4642;51.364;6.788;2023-03-01T10:44:36;8.57;;;5.57;;
9214;SDS011;4642;51.364;6.788;2023-03-01T10:47:17;8.30;;;5.63;;
9214;SDS011;4642;51.364;6.788;2023-03-01T10:50:04;8.37;;;5.20;;
9214;SDS011;4642;51.364;6.788;2023-03-01T10:52:42;7.90;;;5.50;;
9214;SDS011;4642;51.364;6.788;2023-03-01T10:55:34;8.20;;;5.47;;
9214;SDS011;4642;51.364;6.788;2023-03-01T11:00:32;7.37;;;5.33;;
9214;SDS011;4642;51.364;6.788;2023-03-01T11:05:25;8.00;;;5.30;;
9214;SDS011;4642;51.364;6.788;2023-03-01T11:07:54;6.77;;;5.10;;
9214;SDS011;4642;51.364;6.788;2023-03-01T11:10:32;7.50;;;4.93;;
9214;SDS011;4642;51.364;6.788;2023-03-01T11:13:18;9.37;;;5.50;;
9214;SDS011;4642;51.364;6.788;2023-03-01T11:16:00;7.73;;;5.70;;
9214;SDS011;4642;51.364;6.788;2023-03-01T11:18:27;11.00;;;5.33;;
9214;SDS011;4642;51.364;6.788;2023-03-01T11:20:55;7.33;;;4.87;;
9214;SDS011;4642;51.364;6.788;2023-03-01T11:23:23;8.67;;;4.83;;
9214;SDS011;4642;51.364;6.788;2023-03-01T11:25:51;8.87;;;5.37;;
9214;SDS011;4642;51.364;6.788;2023-03-01T11:28:24;7.17;;;4.70;;
9214;SDS011;4642;51.364;6.788;2023-03-01T11:33:44;8.27;;;4.93;;
9214;SDS011;4642;51.364;6.788;2023-03-01T11:36:27;7.63;;;4.93;;
9214;SDS011;4642;51.364;6.788;2023-03-01T11:39:17;6.40;;;4.73;;
9214;SDS011;4642;51.364;6.788;2023-03-01T11:41:49;7.70;;;4.53;;
9214;SDS011;4642;51.364;6.788;2023-03-01T11:44:24;6.93;;;4.90;;
9214;SDS011;4642;51.364;6.788;2023-03-01T11:52:22;6.33;;;4.73;;
9214;SDS011;4642;51.364;6.788;2023-03-01T11:55:36;6.30;;;3.83;;
9214;SDS011;4642;51.364;6.788;2023-03-01T11:58:30;9.20;;;4.30;;
9214;SDS011;4642;51.364;6.788;2023-03-01T12:01:07;5.00;;;3.93;;
9214;SDS011;4642;51.364;6.788;2023-03-01T12:06:24;7.20;;;4.23;;
9214;SDS011;4642;51.364;6.788;2023-03-01T12:09:09;5.20;;;3.93;;
9214;SDS011;4642;51.364;6.788;2023-03-01T12:12:00;5.67;;;3.67;;
9214;SDS011;4642;51.364;6.788;2023-03-01T12:15:01;6.00;;;3.80;;
9214;SDS011;4642;51.364;6.788;2023-03-01T12:17:46;8.57;;;4.30;;
9214;SDS011;4642;51.364;6.788;2023-03-01T12:20:35;8.57;;;4.40;;
9214;SDS011;4642;51.364;6.788;2023-03-01T12:23:20;6.80;;;4.13;;
9214;SDS011;4642;51.364;6.788;2023-03-01T12:26:06;7.50;;;4.57;;
9214;SDS011;4642;51.364;6.788;2023-03-01T12:39:38;8.03;;;4.40;;
9214;SDS011;4642;51.364;6.788;2023-03-01T12:50:50;6.80;;;4.03;;
9214;SDS011;4642;51.364;6.788;2023-03-01T12:53:24;6.33;;;4.27;;
9214;SDS011;4642;51.364;6.788;2023-03-01T12:55:53;7.00;;;4.20;;
9214;SDS011;4642;51.364;6.788;2023-03-01T12:58:31;6.57;;;3.70;;
9214;SDS011;4642;51.364;6.788;2023-03-01T13:01:15;7.37;;;4.60;;
9214;SDS011;4642;51.364;6.788;2023-03-01T13:31:10;7.53;;;4.70;;
9214;SDS011;4642;51.364;6.788;2023-03-01T13:44:11;6.93;;;4.47;;
9214;SDS011;4642;51.364;6.788;2023-03-01T13:46:44;8.03;;;4.93;;
9214;SDS011;4642;51.364;6.788;2023-03-01T13:49:18;9.23;;;5.47;;
9214;SDS011;4642;51.364;6.788;2023-03-01T13:51:50;6.77;;;4.53;;
9214;SDS011;4642;51.364;6.788;2023-03-01T13:54:18;5.37;;;4.00;;
9214;SDS011;4642;51.364;6.788;2023-03-01T13:56:51;9.43;;;5.00;;
9214;SDS011;4642;51.364;6.788;2023-03-01T13:59:18;7.53;;;4.60;;
9214;SDS011;4642;51.364;6.788;2023-03-01T14:01:51;6.70;;;4.17;;
9214;SDS011;4642;51.364;6.788;2023-03-01T14:04:20;9.47;;;4.43;;
9214;SDS011;4642;51.364;6.788;2023-03-01T14:06:46;6.73;;;4.57;;
9214;SDS011;4642;51.364;6.788;2023-03-01T14:09:16;7.07;;;4.67;;
9214;SDS011;4642;51.364;6.788;2023-03-01T14:14:43;7.20;;;4.40;;
9214;SDS011;4642;51.364;6.788;2023-03-01T14:19:43;8.70;;;4.80;;
9214;SDS011;4642;51.364;6.788;2023-03-01T14:22:27;9.80;;;5.00;;
9214;SDS011;4642;51.364;6.788;2023-03-01T14:25:02;6.57;;;4.90;;
9214;SDS011;4642;51.364;6.788;2023-03-01T14:27:38;6.03;;;4.47;;
9214;SDS011;4642;51.364;6.788;2023-03-01T14:32:37;10.47;;;4.77;;
9214;SDS011;4642;51.364;6.788;2023-03-01T14:35:35;5.93;;;4.10;;
9214;SDS011;4642;51.364;6.788;2023-03-01T14:38:02;7.43;;;4.80;;
9214;SDS011;4642;51.364;6.788;2023-03-01T14:40:29;7.47;;;4.67;;
9214;SDS011;4642;51.364;6.788;2023-03-01T14:42:59;8.13;;;5.07;;
9214;SDS011;4642;51.364;6.788;2023-03-01T14:45:28;7.30;;;4.40;;
9214;SDS011;4642;51.364;6.788;2023-03-01T14:47:55;6.37;;;4.80;;
9214;SDS011;4642;51.364;6.788;2023-03-01T14:50:34;9.17;;;4.80;;
9214;SDS011;4642;51.364;6.788;2023-03-01T14:53:05;8.00;;;4.83;;
9214;SDS011;4642;51.364;6.788;2023-03-01T14:55:38;8.30;;;5.30;;
9214;SDS011;4642;51.364;6.788;2023-03-01T14:58:10;5.87;;;4.70;;
9214;SDS011;4642;51.364;6.788;2023-03-01T15:00:38;12.67;;;5.43;;
9214;SDS011;4642;51.364;6.788;2023-03-01T15:03:08;6.43;;;4.93;;
9214;SDS011;4642;51.364;6.788;2023-03-01T15:05:40;7.47;;;5.13;;
9214;SDS011;4642;51.364;6.788;2023-03-01T15:08:08;7.70;;;4.83;;
9214;SDS011;4642;51.364;6.788;2023-03-01T15:10:54;6.67;;;4.57;;
9214;SDS011;4642;51.364;6.788;2023-03-01T15:13:32;8.30;;;5.00;;
9214;SDS011;4642;51.364;6.788;2023-03-01T15:16:06;8.90;;;4.60;;
9214;SDS011;4642;51.364;6.788;2023-03-01T15:18:34;8.70;;;5.13;;
9214;SDS011;4642;51.364;6.788;2023-03-01T15:21:05;8.93;;;5.13;;
9214;SDS011;4642;51.364;6.788;2023-03-01T15:23:33;7.37;;;5.33;;
9214;SDS011;4642;51.364;6.788;2023-03-01T15:26:00;7.50;;;4.73;;
9214;SDS011;4642;51.364;6.788;2023-03-01T15:28:37;7.70;;;4.30;;
9214;SDS011;4642;51.364;6.788;2023-03-01T15:31:20;8.70;;;5.07;;
9214;SDS011;4642;51.364;6.788;2023-03-01T15:33:47;8.73;;;4.70;;
9214;SDS011;4642;51.364;6.788;2023-03-01T15:36:31;9.70;;;5.33;;
9214;SDS011;4642;51.364;6.788;2023-03-01T15:39:02;6.10;;;4.23;;
9214;SDS011;4642;51.364;6.788;2023-03-01T15:41:33;8.07;;;4.67;;
9214;SDS011;4642;51.364;6.788;2023-03-01T15:44:23;6.30;;;4.20;;
9214;SDS011;4642;51.364;6.788;2023-03-01T15:46:51;8.00;;;5.40;;
9214;SDS011;4642;51.364;6.788;2023-03-01T15:49:26;7.83;;;4.83;;
9214;SDS011;4642;51.364;6.788;2023-03-01T15:51:58;7.33;;;5.10;;
9214;SDS011;4642;51.364;6.788;2023-03-01T15:54:24;9.00;;;5.00;;
9214;SDS011;4642;51.364;6.788;2023-03-01T15:56:51;6.10;;;4.23;;
9214;SDS011;4642;51.364;6.788;2023-03-01T15:59:17;9.30;;;4.50;;
9214;SDS011;4642;51.364;6.788;2023-03-01T16:01:43;7.80;;;4.77;;
9214;SDS011;4642;51.364;6.788;2023-03-01T16:04:10;7.37;;;4.80;;
9214;SDS011;4642;51.364;6.788;2023-03-01T16:06:45;9.40;;;5.47;;
9214;SDS011;4642;51.364;6.788;2023-03-01T16:09:19;6.07;;;4.80;;
9214;SDS011;4642;51.364;6.788;2023-03-01T16:11:49;6.83;;;4.63;;
9214;SDS011;4642;51.364;6.788;2023-03-01T16:14:15;15.50;;;5.43;;
9214;SDS011;4642;51.364;6.788;2023-03-01T16:16:41;9.17;;;4.40;;
9214;SDS011;4642;51.364;6.788;2023-03-01T16:19:07;7.30;;;4.70;;
9214;SDS011;4642;51.364;6.788;2023-03-01T16:21:33;6.87;;;5.20;;
9214;SDS011;4642;51.364;6.788;2023-03-01T16:23:59;8.00;;;5.20;;
9214;SDS011;4642;51.364;6.788;2023-03-01T16:26:28;8.20;;;4.43;;
9214;SDS011;4642;51.364;6.788;2023-03-01T16:28:55;8.13;;;5.07;;
9214;SDS011;4642;51.364;6.788;2023-03-01T16:31:21;11.00;;;5.07;;
9214;SDS011;4642;51.364;6.788;2023-03-01T16:33:48;6.40;;;4.37;;
9214;SDS011;4642;51.364;6.788;2023-03-01T16:36:17;7.17;;;5.03;;
9214;SDS011;4642;51.364;6.788;2023-03-01T16:38:44;8.13;;;4.53;;
9214;SDS011;4642;51.364;6.788;2023-03-01T16:41:11;10.30;;;5.33;;
9214;SDS011;4642;51.364;6.788;2023-03-01T16:43:39;10.23;;;4.93;;
9214;SDS011;4642;51.364;6.788;2023-03-01T16:46:19;8.43;;;4.53;;
9214;SDS011;4642;51.364;6.788;2023-03-01T16:48:47;9.77;;;4.37;;
9214;SDS011;4642;51.364;6.788;2023-03-01T16:51:13;7.43;;;4.33;;
9214;SDS011;4642;51.364;6.788;2023-03-01T16:53:40;7.00;;;4.37;;
9214;SDS011;4642;51.364;6.788;2023-03-01T16:56:06;8.43;;;4.90;;
9214;SDS011;4642;51.364;6.788;2023-03-01T16:58:34;8.23;;;4.53;;
9214;SDS011;4642;51.364;6.788;2023-03-01T17:01:10;6.83;;;4.47;;
9214;SDS011;4642;51.364;6.788;2023-03-01T17:03:38;8.13;;;4.70;;
9214;SDS011;4642;51.364;6.788;2023-03-01T17:06:05;5.10;;;3.70;;
9214;SDS011;4642;51.364;6.788;2023-03-01T17:08:33;8.83;;;4.50;;
9214;SDS011;4642;51.364;6.788;2023-03-01T17:11:03;7.27;;;4.53;;
9214;SDS011;4642;51.364;6.788;2023-03-01T17:13:30;6.83;;;4.40;;
9214;SDS011;4642;51.364;6.788;2023-03-01T17:15:55;8.07;;;4.63;;
9214;SDS011;4642;51.364;6.788;2023-03-01T17:18:21;7.50;;;4.30;;